Latest Weather Observations for Lucinda

IDQ60801

Issued at 7:35 pm EST Saturday 29 November 2014 (issued every 30 minutes, with the page automatically refreshed every 10 minutes)

About weather observations | Map of weather stations | Latest weather observations for QLD | Other Formats
Station Details ID: 032141 Name: LUCINDA POINT Lat: -18.52 Lon: 146.39 Height: 10.0 m
Data from the previous 72 hours. | See also: Recent months for locations in Queensland
Date/Time
EST
Temp
°C
App
Temp
°C
Dew
Point
Rel
Hum
%
Delta-T
°C
Wind Press
QNH
hPa
Press
MSL
hPa
Rain
since 9 am
mm
Dir
 
Spd
km/h
Gust
km/h
Spd
kts
Gust
kts
29/07:30pm 26.7 25.7 19.6 65 4.6 ESE 24 32 13 17 1011.4 1011.3 0.0
29/07:00pm 26.5 25.6 19.1 64 4.8 ESE 22 32 12 17 1011.1 1011.0 0.0
29/06:30pm 26.7 25.4 19.1 63 4.9 ESE 24 35 13 19 1010.9 1010.8 0.0
29/06:00pm 26.9 25.0 17.7 57 5.8 ESE 24 37 13 20 1010.7 1010.6 0.0
29/05:30pm 27.3 26.1 17.5 55 6.2 ESE 20 30 11 16 1010.5 1010.4 0.0
29/05:00pm 27.7 26.4 18.1 56 6.1 ESE 22 30 12 16 1010.3 1010.2 0.0
29/04:30pm 27.5 26.1 17.9 55 6.1 ESE 22 30 12 16 1009.9 1009.8 0.0
29/04:00pm 27.8 26.4 17.9 54 6.3 ESE 22 32 12 17 1009.8 1009.7 0.0
29/03:30pm 28.0 26.7 18.1 55 6.3 ESE 22 33 12 18 1009.9 1009.8 0.0
29/03:00pm 27.9 27.2 18.3 56 6.1 ESE 19 30 10 16 1010.3 1010.2 0.0
29/02:30pm 28.0 26.4 17.5 52 6.6 ESE 22 32 12 17 1010.5 1010.4 0.0
29/02:00pm 28.0 26.9 17.8 54 6.5 ESE 20 32 11 17 1010.8 1010.7 0.0
29/01:30pm 28.3 27.5 18.1 54 6.5 ESE 19 30 10 16 1011.2 1011.1 0.0
29/01:00pm 28.3 27.8 17.8 53 6.7 SE 17 28 9 15 1011.3 1011.2 0.0
29/12:30pm 28.2 28.4 18.6 56 6.2 SE 15 24 8 13 1011.5 1011.4 0.0
29/12:00pm 27.8 27.0 18.5 57 6.0 ESE 20 30 11 16 1011.8 1011.7 0.0
29/11:30am 27.7 25.9 17.8 54 6.3 ESE 24 33 13 18 1012.0 1011.9 0.0
29/11:00am 27.8 26.9 18.2 56 6.1 ESE 20 32 11 17 1012.3 1012.2 0.0
29/10:30am 27.5 26.1 18.8 59 5.6 ESE 24 35 13 19 1012.4 1012.3 0.0
29/10:00am 27.2 24.8 18.2 58 5.7 ESE 28 37 15 20 1012.6 1012.5 0.0
29/09:30am 26.9 26.0 19.0 62 5.1 ESE 22 33 12 18 1012.8 1012.7 0.0
29/09:00am 27.1 26.1 18.9 61 5.3 ESE 22 35 12 19 1012.8 1012.7 0.0
29/08:30am 27.0 26.0 18.8 60 5.3 ESE 22 35 12 19 1012.7 1012.6 0.0
29/08:00am 26.9 25.0 19.3 63 4.9 ESE 28 37 15 20 1012.4 1012.3 0.0
29/07:30am 26.8 26.2 18.9 62 5.1 SE 20 35 11 19 1012.1 1012.0 0.0
29/07:00am 26.6 26.4 18.5 61 5.2 E 17 28 9 15 1011.8 1011.7 0.0
29/06:30am 26.6 25.2 18.7 62 5.0 ESE 24 37 13 20 1011.5 1011.4 0.0
29/06:00am 26.0 25.2 19.2 66 4.4 SE 22 35 12 19 1011.2 1011.1 0.0
29/05:30am 26.0 24.3 18.2 62 4.9 SE 24 39 13 21 1011.0 1010.9 0.0
29/05:00am 26.1 25.3 18.5 63 4.8 SE 20 33 11 18 1010.8 1010.7 0.0
29/04:30am 26.2 26.3 19.1 65 4.6 SE 17 30 9 16 1010.7 1010.6 0.0
29/04:00am 26.2 25.8 18.8 63 4.7 SE 19 30 10 16 1010.5 1010.4 0.0
29/03:30am 26.2 25.6 18.8 63 4.7 SSE 20 32 11 17 1010.4 1010.3 0.0
29/03:00am 26.1 25.5 18.5 63 4.8 SE 19 30 10 16 1010.5 1010.4 0.0
29/02:30am 26.1 25.3 18.5 63 4.8 SE 20 32 11 17 1010.4 1010.3 0.0
29/02:00am 26.1 25.2 18.2 61 5.0 SE 20 32 11 17 1010.6 1010.5 0.0
29/01:30am 26.2 25.9 19.1 65 4.6 SE 19 32 10 17 1010.9 1010.8 0.0
29/01:00am 26.3 25.5 18.4 61 5.0 ESE 20 30 11 16 1010.9 1010.8 0.0
29/12:30am 26.3 25.6 18.7 63 4.9 ESE 20 33 11 18 1011.4 1011.3 0.0
29/12:00am 26.3 25.8 19.2 65 4.6 ESE 20 37 11 20 1011.7 1011.6 0.0
 
Date/Time
EST
Temp
°C
App
Temp
°C
Dew
Point
Rel
Hum
%
Delta-T
°C
Wind Press
QNH
hPa
Press
MSL
hPa
Rain
since 9 am
mm
Dir
 
Spd
km/h
Gust
km/h
Spd
kts
Gust
kts
28/11:30pm 26.2 25.7 19.1 65 4.6 SE 20 33 11 18 1012.0 1011.9 0.0
28/11:00pm 26.3 25.9 18.9 63 4.7 SE 19 30 10 16 1012.6 1012.5 0.0
28/10:30pm 26.3 26.1 18.4 61 5.0 SE 17 28 9 15 1012.6 1012.5 0.0
28/10:00pm 26.5 26.6 19.1 64 4.8 ESE 17 26 9 14 1012.7 1012.6 0.0
28/09:30pm 26.5 26.1 18.9 63 4.9 ESE 19 30 10 16 1012.6 1012.5 0.0
28/09:00pm 26.4 25.0 18.0 60 5.3 ESE 22 32 12 17 1012.4 1012.3 0.0
28/08:30pm 26.5 26.1 18.9 63 4.9 SE 19 28 10 15 1012.2 1012.1 0.0
28/08:00pm 26.5 26.1 18.9 63 4.9 ESE 19 28 10 15 1012.1 1012.0 0.0
28/07:30pm 26.5 25.7 18.4 61 5.2 ESE 20 28 11 15 1012.0 1011.9 0.0
28/07:00pm 26.6 25.6 17.9 59 5.5 ESE 20 30 11 16 1011.6 1011.5 0.0
28/06:30pm 26.9 26.0 18.2 59 5.5 ESE 20 28 11 15 1011.3 1011.2 0.0
28/06:00pm 27.3 25.4 16.6 52 6.6 ESE 22 30 12 16 1011.0 1010.9 0.0
28/05:30pm 27.8 26.2 16.4 50 7.1 ESE 20 26 11 14 1010.9 1010.8 0.0
28/05:00pm 28.1 26.8 15.7 46 7.6 E 17 26 9 14 1010.6 1010.5 0.0
28/04:30pm 28.1 27.0 17.3 52 6.8 ESE 19 26 10 14 1010.6 1010.5 0.0
28/04:00pm 28.1 26.3 17.0 51 7.0 ESE 22 30 12 16 1010.6 1010.5 0.0
28/03:30pm 28.4 27.7 18.2 54 6.5 ESE 19 30 10 16 1010.7 1010.6 0.0
28/03:00pm 28.2 27.0 17.1 51 7.0 SE 19 33 10 18 1011.0 1010.9 0.0
28/02:30pm 27.9 27.4 17.7 53 6.4 SE 17 30 9 16 1011.3 1011.2 0.0
28/02:00pm 28.0 27.5 17.8 54 6.5 SE 17 24 9 13 1011.4 1011.3 0.0
28/01:30pm 28.1 27.6 17.9 54 6.5 SE 17 26 9 14 1011.6 1011.5 0.0
28/01:00pm 28.2 27.8 18.0 54 6.5 SE 17 24 9 13 1011.9 1011.8 0.0
28/12:30pm 28.0 27.5 17.8 54 6.5 SE 17 28 9 15 1012.1 1012.0 0.0
28/12:00pm 28.0 28.0 18.1 55 6.3 SE 15 24 8 13 1012.4 1012.3 0.0
28/11:30am 28.1 27.8 18.2 55 6.3 SE 17 26 9 14 1012.6 1012.5 0.0
28/11:00am 28.1 28.1 18.2 55 6.3 SE 15 26 8 14 1012.9 1012.8 0.0
28/10:30am 28.3 28.2 17.8 53 6.7 SE 15 24 8 13 1013.2 1013.1 0.0
28/10:00am 28.5 28.6 18.3 54 6.5 SE 15 24 8 13 1013.2 1013.1 0.0
28/09:30am 28.3 28.6 16.9 50 7.1 SE 11 19 6 10 1013.3 1013.2 0.0
28/09:00am 28.3 28.6 17.8 53 6.7 ESE 13 19 7 10 1013.1 1013.0 0.0
28/08:30am 27.7 27.1 17.5 53 6.4 ESE 17 20 9 11 1012.8 1012.7 0.0
28/08:00am 27.8 27.5 17.3 52 6.6 ESE 15 22 8 12 1012.5 1012.4 0.0
28/07:30am 27.7 27.7 17.2 52 6.6 ESE 13 20 7 11 1012.2 1012.1 0.0
28/07:00am 27.5 27.2 16.5 51 6.8 ESE 13 20 7 11 1012.1 1012.0 0.0
28/06:30am 27.1 27.3 17.6 56 6.0 SE 13 20 7 11 1012.0 1011.9 0.0
28/06:00am 26.2 26.0 17.6 59 5.4 ESE 15 20 8 11 1011.6 1011.5 0.0
28/05:30am 26.0 26.8 18.2 62 4.9 SE 11 20 6 11 1011.5 1011.4 0.0
28/05:00am 26.0 27.3 19.2 66 4.4 ESE 11 20 6 11 1011.3 1011.2 0.0
28/04:30am 25.8 26.5 18.0 62 4.9 SSE 11 20 6 11 1011.2 1011.1 0.0
28/04:00am 25.8 26.6 18.2 63 4.8 SE 11 22 6 12 1011.1 1011.0 0.0
28/03:30am 25.9 26.5 18.6 64 4.6 SE 13 19 7 10 1011.1 1011.0 0.0
28/03:00am 26.0 26.5 18.4 63 4.8 SE 13 20 7 11 1011.1 1011.0 0.0
28/02:30am 26.1 26.7 18.5 63 4.8 ESE 13 26 7 14 1011.0 1010.9 0.0
28/02:00am 26.2 26.6 19.1 65 4.6 ESE 15 22 8 12 1011.1 1011.0 0.0
28/01:30am 26.0 26.1 19.2 66 4.4 ESE 17 28 9 15 1011.2 1011.1 0.0
28/01:00am 26.1 26.0 18.8 64 4.7 ESE 17 28 9 15 1011.6 1011.5 0.0
28/12:30am 26.2 25.7 18.6 63 4.8 ESE 19 24 10 13 1011.8 1011.7 0.0
28/12:00am 26.1 26.4 18.8 64 4.7 SE 15 26 8 14 1011.9 1011.8 0.0
 
Date/Time
EST
Temp
°C
App
Temp
°C
Dew
Point
Rel
Hum
%
Delta-T
°C
Wind Press
QNH
hPa
Press
MSL
hPa
Rain
since 9 am
mm
Dir
 
Spd
km/h
Gust
km/h
Spd
kts
Gust
kts
27/11:30pm 26.2 26.7 19.3 65 4.4 SE 15 28 8 15 1012.0 1011.9 0.0
27/11:00pm 26.3 27.0 19.7 67 4.3 SE 15 22 8 12 1012.0 1011.9 0.0
27/10:30pm 26.2 26.4 19.3 65 4.4 ESE 17 28 9 15 1012.3 1012.2 0.0
27/10:00pm 26.3 26.5 19.4 66 4.5 ESE 17 24 9 13 1012.3 1012.2 0.0
27/09:30pm 26.4 27.3 19.3 65 4.6 ESE 13 22 7 12 1012.3 1012.2 0.0
27/09:00pm 26.6 27.1 19.2 64 4.8 E 15 20 8 11 1012.0 1011.9 0.0
27/08:30pm 26.5 26.5 18.9 63 4.9 E 17 22 9 12 1011.9 1011.8 0.0
27/08:00pm 26.6 27.2 18.7 62 5.1 ESE 13 19 7 10 1012.0 1011.9 0.0
27/07:30pm 26.7 25.9 17.2 56 5.9 ESE 17 20 9 11 1011.7 1011.6 0.0
27/07:00pm 26.7 26.8 16.6 54 6.3 E 11 15 6 8 1011.6 1011.5 0.0
27/06:30pm 26.7 26.7 17.2 56 5.9 E 13 15 7 8 1011.4 1011.3 0.0
27/06:00pm 27.3 26.7 16.6 52 6.6 ESE 15 24 8 13 1011.2 1011.1 0.0
27/05:30pm 27.1 25.8 16.7 53 6.5 ESE 19 28 10 15 1010.9 1010.8 0.0
27/05:00pm 28.2 27.4 18.0 54 6.5 ESE 19 26 10 14 1010.7 1010.6 0.0
27/04:30pm 28.0 27.1 17.8 54 6.5 ESE 19 26 10 14 1010.5 1010.4 0.0
27/04:00pm 27.6 26.9 18.3 57 5.9 ESE 19 26 10 14 1010.4 1010.3 0.0
27/03:30pm 28.6 28.0 18.4 54 6.5 ESE 19 24 10 13 1010.3 1010.2 0.0
27/03:00pm 27.9 26.9 18.0 55 6.3 ESE 20 28 11 15 1010.4 1010.3 0.0
27/02:30pm 28.3 27.7 18.4 55 6.3 ESE 19 26 10 14 1010.7 1010.6 0.0
27/02:00pm 28.7 29.1 18.2 53 6.7 SE 13 24 7 13 1011.0 1010.9 0.0
27/01:30pm 28.5 27.8 18.3 54 6.5 ESE 19 26 10 14 1011.2 1011.1 0.0
27/01:00pm 28.6 28.9 18.7 55 6.4 ESE 15 20 8 11 1011.4 1011.3 0.0
27/12:30pm 28.7 28.6 17.9 52 6.9 ESE 15 24 8 13 1011.8 1011.7 0.0
27/12:00pm 28.8 28.8 18.0 52 6.9 ESE 15 20 8 11 1012.0 1011.9 0.0
27/11:30am 28.1 27.6 17.9 54 6.5 E 17 22 9 12 1012.3 1012.2 0.0
27/11:00am 27.9 28.4 18.3 56 6.1 ESE 13 17 7 9 1012.8 1012.7 0.0
27/10:30am 27.3 27.2 17.8 56 6.0 E 15 19 8 10 1013.0 1012.9 0.0
27/10:00am 28.2 27.3 17.7 53 6.6 ESE 19 20 10 11 1013.1 1013.0 0.0
27/09:30am 28.7 29.5 18.2 53 6.7 ESE 11 20 6 11 1013.4 1013.3 0.0
27/09:00am 27.3 27.4 18.3 58 5.7 ESE 15 22 8 12 1013.6 1013.5 2.8
27/08:30am 27.9 28.1 17.7 53 6.4 ESE 13 20 7 11 1013.6 1013.5 2.8
27/08:00am 27.3 27.7 19.1 61 5.3 SE 15 22 8 12 1013.5 1013.4 2.8
27/07:30am 26.7 26.6 18.8 62 5.1 ESE 17 22 9 12 1013.3 1013.2 2.8
27/07:00am 27.2 27.5 18.8 60 5.4 SE 15 24 8 13 1013.2 1013.1 2.8
27/06:30am 26.5 26.0 18.6 62 5.0 ESE 19 26 10 14 1012.9 1012.8 2.8
27/06:00am 26.4 26.3 18.8 63 4.9 ESE 17 24 9 13 1012.7 1012.6 2.8
27/05:30am 26.5 26.6 19.1 64 4.8 E 17 22 9 12 1012.2 1012.1 2.8
27/05:00am 26.5 25.9 18.4 61 5.2 E 19 26 10 14 1012.1 1012.0 2.8
27/04:30am 26.4 26.0 18.8 63 4.9 E 19 26 10 14 1011.6 1011.5 2.8
27/04:00am 26.3 26.2 18.7 63 4.9 E 17 22 9 12 1011.5 1011.4 2.8
27/03:30am 26.3 25.6 18.7 63 4.9 ENE 20 28 11 15 1011.2 1011.1 2.8
27/03:00am 26.4 26.0 18.0 60 5.3 ENE 17 20 9 11 1011.2 1011.1 2.8
27/02:30am 26.3 25.9 18.9 63 4.7 E 19 24 10 13 1011.3 1011.2 2.8
27/02:00am 26.3 25.2 18.7 63 4.9 ESE 22 30 12 16 1011.2 1011.1 2.8
27/01:30am 26.3 25.4 19.9 68 4.2 ESE 24 32 13 17 1011.2 1011.1 2.8
27/01:00am 26.5 26.1 20.1 68 4.2 ESE 22 32 12 17 1011.5 1011.4 2.8
27/12:30am 26.5 26.1 20.1 68 4.2 ESE 22 32 12 17 1011.8 1011.7 2.8
27/12:00am 26.8 25.8 20.4 68 4.2 ESE 26 33 14 18 1012.0 1011.9 2.8
 
Date/Time
EST
Temp
°C
App
Temp
°C
Dew
Point
Rel
Hum
%
Delta-T
°C
Wind Press
QNH
hPa
Press
MSL
hPa
Rain
since 9 am
mm
Dir
 
Spd
km/h
Gust
km/h
Spd
kts
Gust
kts
26/11:30pm 26.6 25.4 20.0 67 4.3 E 26 33 14 18 1012.1 1012.0 2.8
26/11:00pm 26.7 25.1 20.1 67 4.3 ESE 28 39 15 21 1012.3 1012.2 2.8
26/10:30pm 26.7 25.5 20.8 70 3.9 ESE 28 35 15 19 1012.5 1012.4 2.8
26/10:00pm 26.1 26.5 21.7 77 2.9 NNE 22 28 12 15 1012.6 1012.5 2.8
26/09:30pm 25.9 26.7 21.8 78 2.7 NNE 20 28 11 15 1012.5 1012.4 1.0
26/09:00pm 26.5 26.8 20.8 71 3.8 NE 20 24 11 13 1012.3 1012.2 1.0
26/08:30pm 26.9 27.2 20.7 69 4.1 E 20 26 11 14 1012.1 1012.0 0.2
26/08:00pm 26.9 27.9 21.0 70 3.9 E 17 22 9 12 1012.1 1012.0 0.2

Other Formats:

Comma delimited format used in spreadsheet applications
http://www.bom.gov.au/fwo/IDQ60801/IDQ60801.94295.axf

JavaScript Object Notation format (JSON) in row-major order
http://www.bom.gov.au/fwo/IDQ60801/IDQ60801.94295.json